createdAt,value
2018-09-25T00:00:49.095Z,48.50
2018-09-25T00:03:23.353Z,47.90
2018-09-25T00:05:58.178Z,47.50
2018-09-25T00:08:33.983Z,47.40
2018-09-25T00:14:34.417Z,47.30
2018-09-25T00:17:10.243Z,45.40
2018-09-25T00:20:14.888Z,43.50
2018-09-25T00:23:10.167Z,42.50
2018-09-25T00:25:46.098Z,42.40
2018-09-25T00:28:23.588Z,42.60
2018-09-25T00:31:04.517Z,42.80
2018-09-25T00:33:40.184Z,43.10
2018-09-25T00:36:16.033Z,43.30
2018-09-25T00:38:52.057Z,42.70
2018-09-25T00:41:26.592Z,44.00
2018-09-25T00:44:03.190Z,43.10
2018-09-25T00:46:37.817Z,43.00
2018-09-25T00:49:13.160Z,43.00
2018-09-25T00:51:47.246Z,43.30
2018-09-25T00:54:23.559Z,44.30
2018-09-25T00:56:58.504Z,43.80
2018-09-25T00:59:38.851Z,43.10
2018-09-25T01:02:13.563Z,43.50
2018-09-25T01:04:47.861Z,44.00
2018-09-25T01:07:23.092Z,44.00
2018-09-25T01:10:04.428Z,43.90
2018-09-25T01:15:28.157Z,46.00
2018-09-25T01:18:02.711Z,46.30
2018-09-25T01:20:37.584Z,47.10
2018-09-25T01:23:12.285Z,48.10
2018-09-25T01:25:46.883Z,48.80
2018-09-25T01:28:23.819Z,49.40
2018-09-25T01:30:58.291Z,49.80
2018-09-25T01:33:34.934Z,50.10
2018-09-25T01:36:09.508Z,50.30
2018-09-25T01:38:46.401Z,50.60
2018-09-25T01:41:23.794Z,51.00
2018-09-25T01:44:00.668Z,51.50
2018-09-25T01:46:36.020Z,52.60
2018-09-25T01:49:10.448Z,52.90
2018-09-25T01:51:53.837Z,52.60
2018-09-25T01:54:32.593Z,51.60
2018-09-25T01:57:08.760Z,51.50
2018-09-25T01:59:57.216Z,51.20
2018-09-25T02:02:31.717Z,50.60
2018-09-25T02:05:11.864Z,50.20
2018-09-25T02:07:48.011Z,50.10
2018-09-25T02:10:31.669Z,50.10
2018-09-25T02:13:06.599Z,49.70
2018-09-25T02:15:41.859Z,50.40
2018-09-25T02:18:16.457Z,51.50
2018-09-25T02:20:52.142Z,52.70
2018-09-25T02:23:26.069Z,53.40
2018-09-25T02:28:41.648Z,53.90
2018-09-25T02:31:16.704Z,53.20
2018-09-25T02:33:58.361Z,52.10
2018-09-25T02:36:35.406Z,51.30
2018-09-25T02:39:14.848Z,50.50
2018-09-25T02:41:52.388Z,50.20
2018-09-25T02:44:30.640Z,50.10
2018-09-25T02:47:07.995Z,49.90
2018-09-25T02:52:49.071Z,49.90
2018-09-25T02:55:26.820Z,50.00
2018-09-25T02:58:02.889Z,49.90
2018-09-25T03:00:43.243Z,50.20
2018-09-25T03:03:22.091Z,50.30
2018-09-25T03:05:58.208Z,50.50
2018-09-25T03:08:33.206Z,51.00
2018-09-25T03:11:10.158Z,50.70
2018-09-25T03:13:45.269Z,50.30
2018-09-25T03:16:23.890Z,49.30
2018-09-25T03:18:58.859Z,48.60
2018-09-25T03:24:53.636Z,47.80
2018-09-25T03:27:29.896Z,47.80
2018-09-25T03:30:05.577Z,48.10
2018-09-25T03:32:44.599Z,48.40
2018-09-25T03:35:19.575Z,49.10
2018-09-25T03:37:56.557Z,48.90
2018-09-25T03:43:52.117Z,48.80
2018-09-25T03:46:28.147Z,48.80
2018-09-25T03:49:04.027Z,49.50
2018-09-25T03:51:43.114Z,49.80
2018-09-25T03:54:18.360Z,50.10
2018-09-25T03:56:55.509Z,49.70
2018-09-25T03:59:32.989Z,49.60
2018-09-25T04:02:08.727Z,49.90
2018-09-25T04:08:23.972Z,48.70
2018-09-25T04:11:18.752Z,46.50
2018-09-25T04:13:53.767Z,46.00
2018-09-25T04:16:30.632Z,45.70
2018-09-25T04:19:08.828Z,45.40
2018-09-25T04:21:46.324Z,45.10
2018-09-25T04:24:32.134Z,44.70
2018-09-25T04:27:11.890Z,44.90
2018-09-25T04:29:49.467Z,44.80
2018-09-25T04:32:25.507Z,44.50
2018-09-25T04:35:02.267Z,45.70
2018-09-25T04:37:37.574Z,48.00
2018-09-25T04:40:13.237Z,49.90
2018-09-25T04:42:51.586Z,50.20
2018-09-25T04:45:28.511Z,50.40
2018-09-25T04:48:04.848Z,50.00
2018-09-25T04:50:41.258Z,49.70
2018-09-25T04:53:17.834Z,49.10
2018-09-25T04:55:54.632Z,48.00
2018-09-25T04:58:40.942Z,47.30
2018-09-25T05:01:18.376Z,47.20
2018-09-25T05:03:55.443Z,47.20
2018-09-25T05:06:30.711Z,47.20
2018-09-25T05:09:05.916Z,47.60
2018-09-25T05:17:20.998Z,48.70
2018-09-25T05:20:01.030Z,48.80
2018-09-25T05:22:39.024Z,48.70
2018-09-25T05:25:14.706Z,49.00
2018-09-25T05:27:49.421Z,49.10
2018-09-25T05:30:32.080Z,49.40
2018-09-25T05:33:11.324Z,50.20
2018-09-25T05:35:46.699Z,51.10
2018-09-25T05:38:26.818Z,51.60
2018-09-25T05:41:03.064Z,52.40
2018-09-25T05:43:42.181Z,52.60
2018-09-25T05:46:27.026Z,52.60
2018-09-25T05:49:07.662Z,52.60
2018-09-25T05:51:43.691Z,52.40
2018-09-25T05:57:09.123Z,51.50
2018-09-25T05:59:45.113Z,51.10
2018-09-25T06:02:22.510Z,50.80
2018-09-25T06:04:59.692Z,50.90
2018-09-25T06:07:36.098Z,51.00
2018-09-25T06:37:50.093Z,52.90
2018-09-25T06:43:09.791Z,51.80
2018-09-25T06:45:43.997Z,52.10
2018-09-25T06:48:24.862Z,52.20
2018-09-25T06:51:05.950Z,52.30
2018-09-25T06:53:43.270Z,53.00
2018-09-25T06:56:17.853Z,52.30
2018-09-25T06:58:51.474Z,52.20
2018-09-25T07:01:25.589Z,52.10
2018-09-25T07:03:59.540Z,52.10
2018-09-25T07:06:33.851Z,51.90
2018-09-25T07:09:08.025Z,51.80
2018-09-25T07:11:42.468Z,51.90
2018-09-25T07:14:16.722Z,52.30
2018-09-25T07:16:50.418Z,52.20
2018-09-25T07:19:24.370Z,51.30
2018-09-25T07:22:05.308Z,51.00
2018-09-25T07:24:42.431Z,50.60
2018-09-25T07:27:19.622Z,50.40
2018-09-25T07:29:56.404Z,50.70
2018-09-25T07:32:30.070Z,50.80
2018-09-25T07:35:04.800Z,50.80
2018-09-25T07:37:39.818Z,51.10
2018-09-25T07:40:28.062Z,52.00
2018-09-25T07:43:01.873Z,52.20
2018-09-25T07:45:36.999Z,52.00
2018-09-25T07:48:11.387Z,51.60
2018-09-25T07:50:47.850Z,51.40
2018-09-25T07:53:22.554Z,51.20
2018-09-25T07:55:57.180Z,51.20
2018-09-25T07:58:32.921Z,51.30
2018-09-25T08:01:15.899Z,51.50
2018-09-25T08:03:50.759Z,50.90
2018-09-25T08:06:25.764Z,50.70
2018-09-25T08:09:00.543Z,50.40
2018-09-25T08:11:35.039Z,49.80
2018-09-25T08:14:10.048Z,49.00
2018-09-25T08:16:44.182Z,48.30
2018-09-25T08:19:18.669Z,47.90
2018-09-25T08:21:54.238Z,48.20
2018-09-25T08:24:28.801Z,49.30
2018-09-25T08:27:03.256Z,49.00
2018-09-25T08:30:00.130Z,48.80
2018-09-25T08:32:33.898Z,49.00
2018-09-25T08:35:08.941Z,49.00
2018-09-25T08:37:43.584Z,48.80
2018-09-25T08:40:30.621Z,47.50
2018-09-25T08:43:04.491Z,46.90
2018-09-25T08:45:39.805Z,46.80
2018-09-25T08:48:14.960Z,46.50
2018-09-25T08:50:49.014Z,46.70
2018-09-25T08:53:24.237Z,46.80
2018-09-25T08:55:59.375Z,46.50
2018-09-25T08:58:33.170Z,46.10
2018-09-25T09:01:07.959Z,45.20
2018-09-25T09:03:42.388Z,44.50
2018-09-25T09:06:16.833Z,44.00
2018-09-25T09:08:53.169Z,43.50
2018-09-25T09:11:32.573Z,43.20
2018-09-25T09:14:07.243Z,43.10
2018-09-25T09:16:42.210Z,42.70
2018-09-25T09:19:22.062Z,42.00
2018-09-25T09:21:55.926Z,41.80
2018-09-25T09:24:29.790Z,41.50
2018-09-25T09:27:04.012Z,41.30
2018-09-25T09:29:37.716Z,41.30
2018-09-25T09:32:12.379Z,40.80
2018-09-25T09:34:46.241Z,40.50
2018-09-25T09:37:20.914Z,40.60
2018-09-25T09:40:15.448Z,41.00
2018-09-25T09:42:49.659Z,39.70
2018-09-25T09:48:18.748Z,38.60
2018-09-25T09:50:53.607Z,38.60
2018-09-25T09:53:27.807Z,38.10
2018-09-25T09:56:02.927Z,37.90
2018-09-25T09:58:37.299Z,37.60
2018-09-25T10:01:39.491Z,37.70
2018-09-25T10:04:13.513Z,36.70
2018-09-25T10:06:54.688Z,36.70
2018-09-25T10:09:39.508Z,36.40
2018-09-25T10:12:14.048Z,36.20
2018-09-25T10:14:48.970Z,35.80
2018-09-25T10:17:24.456Z,35.70
2018-09-25T10:20:13.394Z,35.40
2018-09-25T10:22:54.297Z,35.40
2018-09-25T10:25:33.323Z,35.80
2018-09-25T10:28:15.872Z,35.80
2018-09-25T10:30:55.067Z,35.40
2018-09-25T10:33:34.715Z,35.00
2018-09-25T10:36:08.544Z,34.70
2018-09-25T10:38:44.003Z,34.40
2018-09-25T10:41:18.209Z,34.40
2018-09-25T10:43:59.113Z,34.00
2018-09-25T10:49:20.837Z,33.60
2018-09-25T10:51:58.095Z,33.70
2018-09-25T10:54:32.231Z,34.20
2018-09-25T10:57:05.907Z,34.70
2018-09-25T11:02:22.369Z,34.40
2018-09-25T11:04:56.429Z,34.60
2018-09-25T11:07:30.706Z,35.30
2018-09-25T11:10:23.759Z,36.40
2018-09-25T11:12:59.034Z,36.80
2018-09-25T11:15:49.031Z,36.90
2018-09-25T11:18:31.379Z,36.60
2018-09-25T11:21:05.803Z,36.90
2018-09-25T11:23:48.095Z,36.60
2018-09-25T11:26:22.448Z,36.80
2018-09-25T11:28:56.422Z,37.00
2018-09-25T11:31:41.289Z,36.80
2018-09-25T11:34:15.801Z,36.90
2018-09-25T11:36:50.019Z,37.00
2018-09-25T11:39:24.798Z,36.70
2018-09-25T11:41:58.595Z,36.40
2018-09-25T11:44:34.515Z,36.40
2018-09-25T11:47:10.116Z,36.40
2018-09-25T11:49:44.613Z,35.70
2018-09-25T11:52:19.011Z,35.80
2018-09-25T11:54:53.381Z,35.80
2018-09-25T11:57:27.206Z,36.10
2018-09-25T12:00:11.468Z,36.20
2018-09-25T12:02:47.829Z,36.30
2018-09-25T12:05:25.267Z,36.00
2018-09-25T12:07:59.255Z,36.20
2018-09-25T12:11:07.551Z,36.20
2018-09-25T12:13:46.105Z,36.20
2018-09-25T12:16:19.928Z,35.70
2018-09-25T12:18:53.892Z,35.80
2018-09-25T12:21:27.830Z,35.40
2018-09-25T12:24:02.455Z,35.20
2018-09-25T12:26:36.939Z,35.10
2018-09-25T12:29:13.369Z,35.10
2018-09-25T12:31:47.253Z,35.30
2018-09-25T12:34:25.513Z,34.90
2018-09-25T12:37:06.178Z,34.40
2018-09-25T12:39:40.043Z,34.50
2018-09-25T12:42:14.452Z,34.60
2018-09-25T12:44:49.778Z,33.90
2018-09-25T12:47:24.269Z,33.50
2018-09-25T12:49:59.303Z,33.00
2018-09-25T12:52:34.193Z,33.00
2018-09-25T12:55:08.123Z,33.00
2018-09-25T12:57:43.013Z,32.90
2018-09-25T13:03:00.766Z,33.80
2018-09-25T13:05:35.372Z,33.30
2018-09-25T13:08:10.142Z,33.70
2018-09-25T13:10:44.223Z,32.90
2018-09-25T13:13:19.206Z,33.00
2018-09-25T13:15:55.388Z,32.80
2018-09-25T13:18:29.911Z,33.00
2018-09-25T13:23:42.903Z,33.10
2018-09-25T13:26:25.540Z,33.10
2018-09-25T13:29:01.127Z,33.10
2018-09-25T13:31:41.387Z,33.20
2018-09-25T13:34:21.119Z,33.20
2018-09-25T13:36:55.521Z,32.20
2018-09-25T13:39:30.915Z,31.50
2018-09-25T13:42:05.705Z,31.00
2018-09-25T13:44:43.221Z,30.60
2018-09-25T13:47:20.295Z,30.70
2018-09-25T13:50:29.965Z,30.30
2018-09-25T13:53:06.719Z,30.30
2018-09-25T13:55:41.833Z,30.40
2018-09-25T13:58:17.213Z,30.30
2018-09-25T14:00:51.765Z,30.10
2018-09-25T14:03:26.422Z,30.00
2018-09-25T14:06:00.878Z,30.10
2018-09-25T14:08:38.798Z,30.30
2018-09-25T14:14:07.034Z,31.50
2018-09-25T14:19:30.860Z,32.50
2018-09-25T14:22:05.868Z,33.20
2018-09-25T14:24:44.856Z,33.10
2018-09-25T14:27:19.643Z,33.10
2018-09-25T14:30:07.068Z,33.30
2018-09-25T14:35:21.032Z,32.00
2018-09-25T14:37:59.255Z,32.20
2018-09-25T14:40:52.557Z,32.90
2018-09-25T14:43:27.235Z,33.40
2018-09-25T14:48:42.206Z,33.90
2018-09-25T14:51:23.281Z,34.40
2018-09-25T14:53:58.715Z,34.90
2018-09-25T14:56:41.646Z,35.00
2018-09-25T14:59:18.878Z,35.50
2018-09-25T15:01:56.948Z,35.60
2018-09-25T15:04:37.596Z,35.60
2018-09-25T15:10:26.963Z,35.80
2018-09-25T15:13:02.128Z,35.80
2018-09-25T15:18:24.770Z,36.20
2018-09-25T15:21:01.172Z,36.50
2018-09-25T15:23:37.583Z,36.60
2018-09-25T15:26:13.475Z,36.80
2018-09-25T15:28:50.262Z,36.50
2018-09-25T15:31:26.164Z,36.10
2018-09-25T15:34:00.903Z,35.90
2018-09-25T15:36:36.430Z,36.30
2018-09-25T15:39:19.647Z,36.90
2018-09-25T15:41:58.313Z,36.40
2018-09-25T15:47:21.159Z,35.00
2018-09-25T15:59:02.840Z,34.30
2018-09-25T16:01:40.348Z,34.10
2018-09-25T16:06:54.813Z,34.00
2018-09-25T16:09:28.727Z,34.30
2018-09-25T16:12:07.236Z,34.70
2018-09-25T16:17:24.475Z,35.70
2018-09-25T16:20:02.653Z,36.50
2018-09-25T16:22:42.799Z,37.00
2018-09-25T16:25:16.594Z,37.40
2018-09-25T16:27:56.539Z,37.40
2018-09-25T16:30:30.507Z,37.50
2018-09-25T16:33:04.438Z,37.80
2018-09-25T16:35:38.222Z,38.10
2018-09-25T16:38:16.200Z,38.50
2018-09-25T16:40:50.391Z,39.10
2018-09-25T16:43:24.181Z,39.40
2018-09-25T16:48:52.339Z,39.60
2018-09-25T16:51:41.027Z,39.90
2018-09-25T16:54:15.529Z,40.10
2018-09-25T16:56:49.866Z,40.30
2018-09-25T16:59:23.910Z,40.50
2018-09-25T17:02:07.246Z,40.80
2018-09-25T17:07:22.535Z,41.20
2018-09-25T17:10:03.542Z,41.50
2018-09-25T17:12:41.164Z,41.90
2018-09-25T17:17:55.976Z,43.00
2018-09-25T17:24:19.564Z,43.50
2018-09-25T17:26:59.349Z,43.70
2018-09-25T17:29:34.747Z,43.80
2018-09-25T17:32:09.566Z,44.10
2018-09-25T17:34:49.811Z,44.30
2018-09-25T17:37:23.584Z,44.40
2018-09-25T17:40:07.515Z,44.90
2018-09-25T17:45:37.062Z,45.10
2018-09-25T17:53:51.744Z,45.30
2018-09-25T17:56:36.368Z,45.30
2018-09-25T17:59:28.026Z,45.60
2018-09-25T18:05:00.472Z,45.70
2018-09-25T18:11:02.474Z,45.70
2018-09-25T18:13:43.718Z,46.10
2018-09-25T18:16:28.955Z,46.40
2018-09-25T18:19:10.254Z,46.40
2018-09-25T18:30:19.185Z,46.20
2018-09-25T20:36:43.600Z,52.80
2018-09-25T20:39:26.028Z,52.80
2018-09-25T20:42:06.617Z,52.80
2018-09-25T20:44:44.771Z,52.90
2018-09-25T20:47:23.494Z,52.70
2018-09-25T20:50:09.550Z,52.70
2018-09-25T20:52:54.594Z,52.70
2018-09-25T21:22:51.683Z,53.60
2018-09-25T21:25:40.615Z,53.10
2018-09-25T21:33:55.451Z,53.90
2018-09-25T21:54:22.540Z,54.70
2018-09-25T22:05:38.331Z,55.40
2018-09-25T22:08:26.990Z,55.60
2018-09-25T22:34:24.612Z,55.70
2018-09-25T22:45:22.460Z,56.20
2018-09-25T22:52:03.145Z,56.30
2018-09-25T22:54:45.169Z,56.20
2018-09-25T23:00:23.434Z,56.40
2018-09-25T23:14:33.297Z,56.60
2018-09-25T23:17:18.216Z,56.60
2018-09-25T23:20:01.703Z,56.70
2018-09-25T23:25:25.584Z,56.90
2018-09-25T23:28:10.691Z,56.80
2018-09-25T23:30:53.540Z,57.00
2018-09-25T23:50:32.549Z,56.40
